^^
Daily Summary for February 04, 2022 Units:  Metric    English   Both
Daily Weekly Monthly Yearly Custom
  High: Low: Average:
Temperature: 17.2 °C 1.7 °C 8.2 °C
Dew Point: 2.2 °C -2.8 °C -0.6 °C
Humidity: 89% 28% 59%
Wind Speed: 20.9km/h 0km/h 3.9km/h
Wind Gust: 20.9km/h - -
Wind- - SE
Pressure: 1036.1 hPa 1029.3 hPa -
Precipitation: 0 mm    
Historical Graphs
 
 
Tabular Data for February 04, 2022
Time Temperature Dew Point Pressure Wind Wind Speed Wind Gust Humidity Rainfall Rate (Hourly) solar
00:04 2.8 °C 1.1 °C 1032.7 hPa Calm     87% 0 mm 0.00 W/m2
00:09 2.8 °C 1.1 °C 1029.3 hPa Calm     87% 0 mm 0.00 W/m2
00:14 2.8 °C 1.1 °C 1032.7 hPa Calm     88% 0 mm 0.00 W/m2
00:19 2.8 °C 1.1 °C 1032.7 hPa Calm     88% 0 mm 0.00 W/m2
00:24 2.8 °C 1.1 °C 1032.7 hPa Calm     88% 0 mm 0.00 W/m2
00:29 2.8 °C 1.1 °C 1032.7 hPa Calm     88% 0 mm 0.00 W/m2
00:34 2.8 °C 1.1 °C 1032.7 hPa Calm     88% 0 mm 0.00 W/m2
00:39 2.8 °C 1.1 °C 1032.7 hPa Calm     88% 0 mm 0.00 W/m2
00:44 2.8 °C 1.1 °C 1032.7 hPa Calm     89% 0 mm 0.00 W/m2
00:49 2.8 °C 1.1 °C 1032.7 hPa Calm     89% 0 mm 0.00 W/m2
00:54 2.8 °C 1.7 °C 1032.7 hPa Calm     89% 0 mm 0.00 W/m2
00:59 2.8 °C 1.7 °C 1032.7 hPa Calm     89% 0 mm 0.00 W/m2
01:04 2.8 °C 1.7 °C 1032.7 hPa Calm     89% 0 mm 0.00 W/m2
01:09 2.8 °C 1.7 °C 1032.7 hPa Calm     89% 0 mm 0.00 W/m2
01:14 2.8 °C 1.7 °C 1032.7 hPa Calm     89% 0 mm 0.00 W/m2
01:19 2.8 °C 1.7 °C 1032.7 hPa Calm     89% 0 mm 0.00 W/m2
01:24 2.8 °C 1.7 °C 1032.7 hPa ENE 3.2 km/h   89% 0 mm 0.00 W/m2
01:29 2.8 °C 1.1 °C 1032.7 hPa ENE 6.4 km/h 3.2 km/h 89% 0 mm 0.00 W/m2
01:34 2.8 °C 1.1 °C 1032.7 hPa Calm   4.8 km/h 89% 0 mm 0.00 W/m2
01:39 2.8 °C 1.1 °C 1032.7 hPa Calm     89% 0 mm 0.00 W/m2
01:44 2.8 °C 1.1 °C 1032.7 hPa Calm     89% 0 mm 0.00 W/m2
01:49 2.8 °C 1.1 °C 1032.7 hPa Calm     89% 0 mm 0.00 W/m2
01:54 2.8 °C 1.1 °C 1032.7 hPa Calm     89% 0 mm 0.00 W/m2
01:59 2.8 °C 1.1 °C 1032.7 hPa NNW 3.2 km/h 3.2 km/h 88% 0 mm 0.00 W/m2
02:04 2.8 °C 1.1 °C 1032.7 hPa Calm   3.2 km/h 88% 0 mm 0.00 W/m2
02:09 2.8 °C 1.1 °C 1032.7 hPa NNW 3.2 km/h   88% 0 mm 0.00 W/m2
02:14 2.8 °C 1.1 °C 1032.7 hPa Calm   3.2 km/h 88% 0 mm 0.00 W/m2
02:19 2.8 °C 1.1 °C 1032.7 hPa NW 3.2 km/h 3.2 km/h 88% 0 mm 0.00 W/m2
02:24 2.8 °C 0.6 °C 1032.7 hPa Calm     87% 0 mm 0.00 W/m2
02:29 2.8 °C 0.6 °C 1032.7 hPa Calm     87% 0 mm 0.00 W/m2
02:34 2.8 °C 0.6 °C 1032.7 hPa NW 3.2 km/h 3.2 km/h 87% 0 mm 0.00 W/m2
02:39 2.8 °C 0.6 °C 1032.7 hPa NW 3.2 km/h 3.2 km/h 85% 0 mm 0.00 W/m2
02:44 2.8 °C 0 °C 1032.7 hPa Calm   3.2 km/h 84% 0 mm 0.00 W/m2
02:49 2.8 °C 0 °C 1032.7 hPa Calm     83% 0 mm 0.00 W/m2
02:54 2.8 °C -0.6 °C 1032.7 hPa NW 3.2 km/h   81% 0 mm 0.00 W/m2
02:59 2.8 °C -0.6 °C 1032.7 hPa Calm   3.2 km/h 81% 0 mm 0.00 W/m2
03:04 2.8 °C -0.6 °C 1032.7 hPa Calm     80% 0 mm 0.00 W/m2
03:09 2.8 °C -1.1 °C 1032.7 hPa Calm     78% 0 mm 0.00 W/m2
03:14 2.8 °C -1.1 °C 1032.7 hPa Calm     77% 0 mm 0.00 W/m2
03:19 2.8 °C -1.1 °C 1032.7 hPa Calm     77% 0 mm 0.00 W/m2
03:24 2.8 °C -1.1 °C 1032.7 hPa Calm     77% 0 mm 0.00 W/m2
03:29 2.8 °C -1.1 °C 1032.7 hPa NW 3.2 km/h   77% 0 mm 0.00 W/m2
03:34 2.8 °C -1.1 °C 1032.7 hPa Calm   3.2 km/h 77% 0 mm 0.00 W/m2
03:39 2.2 °C -1.1 °C 1032.7 hPa Calm     77% 0 mm 0.00 W/m2
03:44 2.2 °C -1.1 °C 1032.7 hPa WSW 11.3 km/h 4.8 km/h 76% 0 mm 0.00 W/m2
03:49 2.2 °C -1.7 °C 1032.7 hPa West 11.3 km/h 11.3 km/h 75% 0 mm 0.00 W/m2
03:54 2.2 °C -1.7 °C 1032.7 hPa West 6.4 km/h 3.2 km/h 74% 0 mm 0.00 W/m2
03:59 2.2 °C -1.7 °C 1032.7 hPa WNW 9.7 km/h 4.8 km/h 74% 0 mm 0.00 W/m2
04:04 2.2 °C -1.7 °C 1032.7 hPa Calm   9.7 km/h 74% 0 mm 0.00 W/m2
04:09 2.2 °C -1.7 °C 1032.7 hPa Calm     74% 0 mm 0.00 W/m2
04:14 2.2 °C -1.7 °C 1032.7 hPa Calm     74% 0 mm 0.00 W/m2
04:19 2.2 °C -1.7 °C 1032.7 hPa Calm     73% 0 mm 0.00 W/m2
04:24 2.2 °C -1.7 °C 1032.7 hPa Calm     73% 0 mm 0.00 W/m2
04:29 2.2 °C -1.7 °C 1032.7 hPa Calm     73% 0 mm 0.00 W/m2
04:34 2.2 °C -1.7 °C 1032.7 hPa Calm     73% 0 mm 0.00 W/m2
04:39 2.2 °C -2.2 °C 1032.7 hPa Calm     73% 0 mm 0.00 W/m2
04:44 2.2 °C -2.2 °C 1032.7 hPa West 6.4 km/h 1.6 km/h 73% 0 mm 0.00 W/m2
04:49 2.2 °C -2.2 °C 1032.7 hPa Calm   4.8 km/h 73% 0 mm 0.00 W/m2
04:54 2.2 °C -2.2 °C 1032.7 hPa West 3.2 km/h   73% 0 mm 0.00 W/m2
04:59 2.2 °C -2.2 °C 1032.7 hPa West 3.2 km/h 3.2 km/h 72% 0 mm 0.00 W/m2
05:04 2.2 °C -2.2 °C 1032.7 hPa West 3.2 km/h 3.2 km/h 72% 0 mm 0.00 W/m2
05:09 2.2 °C -2.2 °C 1032.7 hPa Calm     72% 0 mm 0.00 W/m2
05:14 2.2 °C -2.2 °C 1032.7 hPa Calm     73% 0 mm 0.00 W/m2
05:19 2.2 °C -2.2 °C 1032.7 hPa Calm     73% 0 mm 0.00 W/m2
05:24 2.2 °C -2.2 °C 1032.7 hPa Calm     73% 0 mm 0.00 W/m2
05:29 2.2 °C -2.2 °C 1032.7 hPa Calm     73% 0 mm 0.00 W/m2
05:34 2.2 °C -2.2 °C 1032.7 hPa West 3.2 km/h 1.6 km/h 73% 0 mm 0.00 W/m2
05:39 2.2 °C -2.2 °C 1032.7 hPa West 3.2 km/h 3.2 km/h 73% 0 mm 0.00 W/m2
05:44 2.2 °C -2.2 °C 1032.7 hPa Calm   3.2 km/h 73% 0 mm 0.00 W/m2
05:49 2.2 °C -2.2 °C 1032.7 hPa Calm     73% 0 mm 0.00 W/m2
05:54 2.2 °C -2.2 °C 1032.7 hPa Calm     73% 0 mm 0.00 W/m2
05:59 2.2 °C -2.2 °C 1032.7 hPa Calm     73% 0 mm 0.00 W/m2
06:03 2.2 °C -2.2 °C 1032.7 hPa West 3.2 km/h   73% 0 mm 0.00 W/m2
06:09 2.2 °C -2.2 °C 1032.7 hPa Calm   3.2 km/h 74% 0 mm 0.00 W/m2
06:14 2.2 °C -2.2 °C 1032.7 hPa Calm     74% 0 mm 0.00 W/m2
06:19 2.2 °C -2.2 °C 1032.7 hPa Calm     74% 0 mm 0.00 W/m2
06:24 2.2 °C -2.2 °C 1032.7 hPa Calm     74% 0 mm 0.00 W/m2
06:29 1.7 °C -2.2 °C 1032.7 hPa Calm     74% 0 mm 0.00 W/m2
06:34 1.7 °C -2.2 °C 1032.7 hPa Calm     74% 0 mm 0.00 W/m2
06:39 1.7 °C -2.2 °C 1036.1 hPa Calm     74% 0 mm 0.00 W/m2
06:44 1.7 °C -2.8 °C 1036.1 hPa Calm     73% 0 mm 0.00 W/m2
06:49 1.7 °C -2.8 °C 1036.1 hPa Calm     73% 0 mm 0.00 W/m2
06:54 1.7 °C -2.8 °C 1036.1 hPa Calm     73% 0 mm 0.00 W/m2
06:59 1.7 °C -2.8 °C 1036.1 hPa Calm     73% 0 mm 0.00 W/m2
07:04 1.7 °C -2.8 °C 1036.1 hPa Calm     73% 0 mm 0.00 W/m2
07:09 1.7 °C -2.8 °C 1036.1 hPa Calm     72% 0 mm 0.00 W/m2
07:14 1.7 °C -2.8 °C 1036.1 hPa Calm     72% 0 mm 5.00 W/m2
07:19 1.7 °C -2.8 °C 1036.1 hPa Calm     72% 0 mm 7.00 W/m2
07:24 1.7 °C -2.8 °C 1036.1 hPa Calm     73% 0 mm 9.00 W/m2
07:29 1.7 °C -2.8 °C 1036.1 hPa Calm     73% 0 mm 11.00 W/m2
07:34 1.7 °C -2.8 °C 1036.1 hPa Calm     73% 0 mm 12.00 W/m2
07:39 1.7 °C -2.8 °C 1036.1 hPa Calm     74% 0 mm 16.00 W/m2
07:44 1.7 °C -2.8 °C 1036.1 hPa Calm     74% 0 mm 18.00 W/m2
07:49 1.7 °C -2.8 °C 1036.1 hPa Calm     74% 0 mm 19.00 W/m2
07:54 1.7 °C -2.8 °C 1036.1 hPa Calm     74% 0 mm 21.00 W/m2
07:59 1.7 °C -2.2 °C 1036.1 hPa Calm     75% 0 mm 23.00 W/m2
08:04 1.7 °C -2.2 °C 1036.1 hPa Calm     76% 0 mm 23.00 W/m2
08:09 1.7 °C -2.2 °C 1036.1 hPa Calm     76% 0 mm 25.00 W/m2
08:14 1.7 °C -2.2 °C 1036.1 hPa Calm     76% 0 mm 26.00 W/m2
08:19 1.7 °C -2.2 °C 1036.1 hPa Calm     76% 0 mm 28.00 W/m2
08:24 1.7 °C -1.7 °C 1036.1 hPa Calm     76% 0 mm 28.00 W/m2
08:29 2.2 °C -1.7 °C 1036.1 hPa Calm     76% 0 mm 30.00 W/m2
08:34 2.2 °C -1.7 °C 1036.1 hPa Calm     76% 0 mm 32.00 W/m2
08:39 2.8 °C -1.1 °C 1036.1 hPa Calm     76% 0 mm 32.00 W/m2
08:44 2.8 °C -1.1 °C 1036.1 hPa West 3.2 km/h   75% 0 mm 33.00 W/m2
08:49 3.3 °C -1.1 °C 1036.1 hPa West 3.2 km/h 3.2 km/h 74% 0 mm 35.00 W/m2
08:54 3.9 °C -0.6 °C 1036.1 hPa Calm     74% 0 mm 37.00 W/m2
08:59 3.9 °C -0.6 °C 1036.1 hPa Calm     72% 0 mm 127.00 W/m2
09:04 4.4 °C -1.1 °C 1036.1 hPa Calm     70% 0 mm 232.00 W/m2
09:09 4.4 °C -1.7 °C 1036.1 hPa Calm     64% 0 mm 202.00 W/m2
09:14 5 °C -1.1 °C 1036.1 hPa Calm     65% 0 mm 250.00 W/m2
09:19 5.6 °C -1.1 °C 1036.1 hPa Calm     63% 0 mm 306.00 W/m2
09:24 6.1 °C -0.6 °C 1036.1 hPa West 3.2 km/h   64% 0 mm 306.00 W/m2
09:29 6.7 °C -0.6 °C 1036.1 hPa West 3.2 km/h 3.2 km/h 62% 0 mm 397.00 W/m2
09:34 6.7 °C -0.6 °C 1036.1 hPa SE 3.2 km/h 3.2 km/h 60% 0 mm 404.00 W/m2
09:39 7.2 °C -1.7 °C 1036.1 hPa Calm   3.2 km/h 54% 0 mm 434.00 W/m2
09:44 7.8 °C -1.7 °C 1036.1 hPa Calm     54% 0 mm 452.00 W/m2
09:49 7.8 °C -1.1 °C 1036.1 hPa SE 3.2 km/h   53% 0 mm 469.00 W/m2
09:54 8.3 °C -1.1 °C 1036.1 hPa Calm   3.2 km/h 53% 0 mm 499.00 W/m2
09:59 8.9 °C -1.1 °C 1036.1 hPa West 3.2 km/h 3.2 km/h 51% 0 mm 499.00 W/m2
10:04 9.4 °C -1.1 °C 1036.1 hPa SSE 3.2 km/h 3.2 km/h 49% 0 mm 517.00 W/m2
10:09 9.4 °C -1.1 °C 1036.1 hPa ESE 6.4 km/h 1.6 km/h 48% 0 mm 531.00 W/m2
10:14 10 °C -0.6 °C 1036.1 hPa ESE 9.7 km/h 9.7 km/h 47% 0 mm 538.00 W/m2
10:19 10.6 °C -0.6 °C 1036.1 hPa NE 3.2 km/h 3.2 km/h 47% 0 mm 550.00 W/m2
10:24 10.6 °C -0.6 °C 1036.1 hPa East 3.2 km/h 3.2 km/h 46% 0 mm 557.00 W/m2
10:29 11.1 °C -0.6 °C 1036.1 hPa SSE 3.2 km/h 3.2 km/h 45% 0 mm 564.00 W/m2
10:34 11.1 °C 0 °C 1036.1 hPa SE 11.3 km/h 6.4 km/h 45% 0 mm 570.00 W/m2
10:39 11.7 °C -0.6 °C 1036.1 hPa ESE 11.3 km/h 11.3 km/h 43% 0 mm 580.00 W/m2
10:44 11.7 °C -0.6 °C 1036.1 hPa SSE 3.2 km/h 3.2 km/h 42% 0 mm 587.00 W/m2
10:49 12.2 °C -0.6 °C 1036.1 hPa SE 3.2 km/h 3.2 km/h 42% 0 mm 591.00 W/m2
10:54 12.2 °C -0.6 °C 1036.1 hPa East 9.7 km/h 6.4 km/h 42% 0 mm 598.00 W/m2
10:59 12.2 °C -0.6 °C 1036.1 hPa SE 3.2 km/h 9.7 km/h 41% 0 mm 605.00 W/m2
11:04 12.8 °C -0.6 °C 1036.1 hPa SE 6.4 km/h 3.2 km/h 41% 0 mm 610.00 W/m2
11:09 12.8 °C -0.6 °C 1036.1 hPa ESE 3.2 km/h 4.8 km/h 40% 0 mm 615.00 W/m2
11:14 12.8 °C -1.1 °C 1036.1 hPa ESE 6.4 km/h 3.2 km/h 39% 0 mm 619.00 W/m2
11:19 12.8 °C -1.7 °C 1036.1 hPa ESE 3.2 km/h 4.8 km/h 37% 0 mm 622.00 W/m2
11:24 13.3 °C -1.1 °C 1036.1 hPa ESE 3.2 km/h 3.2 km/h 38% 0 mm 628.00 W/m2
11:29 13.3 °C -1.1 °C 1036.1 hPa ESE 6.4 km/h 3.2 km/h 38% 0 mm 629.00 W/m2
11:34 13.3 °C -1.1 °C 1036.1 hPa ESE 6.4 km/h 4.8 km/h 37% 0 mm 635.00 W/m2
11:39 13.9 °C -0.6 °C 1036.1 hPa East 6.4 km/h 3.2 km/h 37% 0 mm 633.00 W/m2
11:44 13.9 °C -0.6 °C 1036.1 hPa NE 6.4 km/h 4.8 km/h 37% 0 mm 638.00 W/m2
11:49 13.9 °C -1.7 °C 1036.1 hPa ESE 3.2 km/h 3.2 km/h 34% 0 mm 638.00 W/m2
11:54 14.4 °C -1.1 °C 1036.1 hPa ESE 3.2 km/h 3.2 km/h 35% 0 mm 640.00 W/m2
11:59 14.4 °C 0 °C 1032.7 hPa ESE 9.7 km/h 3.2 km/h 37% 0 mm 640.00 W/m2
12:04 15 °C -0.6 °C 1032.7 hPa ENE 11.3 km/h 9.7 km/h 35% 0 mm 638.00 W/m2
12:09 15 °C -1.1 °C 1032.7 hPa ENE 3.2 km/h 11.3 km/h 34% 0 mm 640.00 W/m2
12:14 15 °C -1.7 °C 1032.7 hPa NE 14.5 km/h 11.3 km/h 32% 0 mm 640.00 W/m2
12:19 15.6 °C -1.1 °C 1032.7 hPa ENE 3.2 km/h 14.5 km/h 32% 0 mm 640.00 W/m2
12:24 15.6 °C -1.1 °C 1032.7 hPa Calm   3.2 km/h 32% 0 mm 638.00 W/m2
12:29 15.6 °C -1.7 °C 1032.7 hPa East 3.2 km/h   31% 0 mm 635.00 W/m2
12:34 16.1 °C -2.2 °C 1032.7 hPa ENE 3.2 km/h 3.2 km/h 29% 0 mm 631.00 W/m2
12:39 16.1 °C -1.7 °C 1032.7 hPa NE 3.2 km/h 3.2 km/h 30% 0 mm 629.00 W/m2
12:44 16.1 °C -1.7 °C 1032.7 hPa East 9.7 km/h 3.2 km/h 29% 0 mm 626.00 W/m2
12:49 16.7 °C -1.1 °C 1032.7 hPa North 3.2 km/h 9.7 km/h 30% 0 mm 622.00 W/m2
12:54 16.7 °C -0.6 °C 1032.7 hPa ENE 9.7 km/h 4.8 km/h 31% 0 mm 617.00 W/m2
12:59 16.7 °C -1.1 °C 1032.7 hPa ENE 9.7 km/h 9.7 km/h 30% 0 mm 612.00 W/m2
13:04 17.2 °C -0.6 °C 1032.7 hPa NE 3.2 km/h 9.7 km/h 31% 0 mm 610.00 W/m2
13:09 17.2 °C -0.6 °C 1032.7 hPa East 14.5 km/h 6.4 km/h 30% 0 mm 603.00 W/m2
13:14 17.2 °C -1.1 °C 1032.7 hPa East 17.7 km/h 16.1 km/h 29% 0 mm 599.00 W/m2
13:19 17.2 °C -0.6 °C 1032.7 hPa NE 9.7 km/h 11.3 km/h 30% 0 mm 591.00 W/m2
13:24 17.2 °C -1.1 °C 1032.7 hPa ENE 17.7 km/h 9.7 km/h 28% 0 mm 587.00 W/m2
13:29 17.2 °C -1.1 °C 1032.7 hPa East 14.5 km/h 16.1 km/h 28% 0 mm 582.00 W/m2
13:34 17.2 °C -0.6 °C 1032.7 hPa East 14.5 km/h 14.5 km/h 30% 0 mm 571.00 W/m2
13:39 17.2 °C -1.1 °C 1032.7 hPa ENE 9.7 km/h 14.5 km/h 29% 0 mm 561.00 W/m2
13:44 17.2 °C -1.7 °C 1032.7 hPa East 3.2 km/h 9.7 km/h 28% 0 mm 552.00 W/m2
13:49 17.2 °C -0.6 °C 1032.7 hPa East 3.2 km/h 3.2 km/h 29% 0 mm 545.00 W/m2
13:54 17.2 °C -0.6 °C 1032.7 hPa East 20.9 km/h 17.7 km/h 29% 0 mm 536.00 W/m2
13:59 17.2 °C 0 °C 1032.7 hPa East 16.1 km/h 20.9 km/h 31% 0 mm 527.00 W/m2
14:04 17.2 °C 0 °C 1032.7 hPa NNE 9.7 km/h 9.7 km/h 31% 0 mm 515.00 W/m2
14:09 17.2 °C -0.6 °C 1032.7 hPa East 11.3 km/h 9.7 km/h 29% 0 mm 508.00 W/m2
14:14 17.2 °C -0.6 °C 1032.7 hPa SE 9.7 km/h 11.3 km/h 30% 0 mm 496.00 W/m2
14:18 17.2 °C 0 °C 1032.7 hPa ENE 11.3 km/h 9.7 km/h 31% 0 mm 489.00 W/m2
14:24 17.2 °C 0 °C 1032.7 hPa ENE 14.5 km/h 11.3 km/h 31% 0 mm 485.00 W/m2
14:29 17.2 °C 0 °C 1032.7 hPa East 14.5 km/h 14.5 km/h 31% 0 mm 480.00 W/m2
14:34 17.2 °C 0 °C 1032.7 hPa East 17.7 km/h 14.5 km/h 31% 0 mm 476.00 W/m2
14:39 17.2 °C 0 °C 1032.7 hPa ESE 9.7 km/h 16.1 km/h 31% 0 mm 468.00 W/m2
14:44 17.2 °C 0.6 °C 1032.7 hPa NE 9.7 km/h 9.7 km/h 32% 0 mm 457.00 W/m2
14:49 17.2 °C 0 °C 1032.7 hPa NNE 11.3 km/h 11.3 km/h 31% 0 mm 441.00 W/m2
14:54 17.2 °C 0 °C 1032.7 hPa ENE 17.7 km/h 14.5 km/h 31% 0 mm 425.00 W/m2
14:59 17.2 °C -0.6 °C 1032.7 hPa East 17.7 km/h 16.1 km/h 30% 0 mm 406.00 W/m2
15:04 17.2 °C 0 °C 1032.7 hPa ENE 20.9 km/h 16.1 km/h 31% 0 mm 381.00 W/m2
15:09 17.2 °C 0.6 °C 1032.7 hPa East 11.3 km/h 20.9 km/h 32% 0 mm 367.00 W/m2
15:14 17.2 °C 0 °C 1032.7 hPa East 17.7 km/h 11.3 km/h 31% 0 mm 353.00 W/m2
15:19 17.2 °C 0 °C 1032.7 hPa ENE 11.3 km/h 16.1 km/h 31% 0 mm 336.00 W/m2
15:24 17.2 °C 0.6 °C 1032.7 hPa NE 3.2 km/h 11.3 km/h 33% 0 mm 322.00 W/m2
15:29 17.2 °C 0.6 °C 1032.7 hPa ENE 9.7 km/h 4.8 km/h 33% 0 mm 306.00 W/m2
15:34 16.7 °C 0.6 °C 1032.7 hPa NE 11.3 km/h 11.3 km/h 33% 0 mm 290.00 W/m2
15:39 16.7 °C 0 °C 1032.7 hPa ENE 14.5 km/h 11.3 km/h 32% 0 mm 199.00 W/m2
15:44 16.7 °C 0 °C 1032.7 hPa ESE 14.5 km/h 14.5 km/h 32% 0 mm 141.00 W/m2
15:49 16.1 °C 0 °C 1032.7 hPa ESE 9.7 km/h 14.5 km/h 33% 0 mm 234.00 W/m2
15:54 16.1 °C 0 °C 1032.7 hPa ESE 17.7 km/h 17.7 km/h 33% 0 mm 230.00 W/m2
15:59 16.1 °C -0.6 °C 1032.7 hPa East 14.5 km/h 16.1 km/h 33% 0 mm 223.00 W/m2
16:04 15.6 °C -0.6 °C 1032.7 hPa East 11.3 km/h 11.3 km/h 33% 0 mm 185.00 W/m2
16:09 15.6 °C 0 °C 1032.7 hPa NE 11.3 km/h 11.3 km/h 34% 0 mm 190.00 W/m2
16:14 15.6 °C -0.6 °C 1032.7 hPa East 11.3 km/h 11.3 km/h 34% 0 mm 172.00 W/m2
16:19 15.6 °C 0.6 °C 1032.7 hPa NE 11.3 km/h 6.4 km/h 36% 0 mm 149.00 W/m2
16:24 15.6 °C 0.6 °C 1032.7 hPa ENE 11.3 km/h 11.3 km/h 36% 0 mm 137.00 W/m2
16:29 15 °C -0.6 °C 1032.7 hPa East 9.7 km/h 11.3 km/h 35% 0 mm 111.00 W/m2
16:34 15 °C -0.6 °C 1032.7 hPa ESE 3.2 km/h 9.7 km/h 35% 0 mm 44.00 W/m2
16:39 15 °C 0.6 °C 1032.7 hPa NNE 9.7 km/h 3.2 km/h 39% 0 mm 35.00 W/m2
16:44 14.4 °C 0.6 °C 1032.7 hPa NNE 3.2 km/h 9.7 km/h 38% 0 mm 33.00 W/m2
16:49 14.4 °C -0.6 °C 1032.7 hPa Calm   3.2 km/h 37% 0 mm 32.00 W/m2
16:54 13.9 °C 0.6 °C 1032.7 hPa Calm     40% 0 mm 28.00 W/m2
16:59 13.9 °C 1.1 °C 1032.7 hPa Calm     43% 0 mm 25.00 W/m2
17:04 13.9 °C 1.1 °C 1032.7 hPa Calm     43% 0 mm 19.00 W/m2
17:09 13.3 °C 1.1 °C 1032.7 hPa NNE 3.2 km/h   43% 0 mm 16.00 W/m2
17:14 13.3 °C 0.6 °C 1032.7 hPa NNE 3.2 km/h 3.2 km/h 42% 0 mm 12.00 W/m2
17:19 12.8 °C 1.7 °C 1032.7 hPa Calm   3.2 km/h 46% 0 mm 11.00 W/m2
17:24 12.8 °C 1.7 °C 1032.7 hPa Calm     48% 0 mm 7.00 W/m2
17:29 12.2 °C 1.7 °C 1032.7 hPa Calm     49% 0 mm 0.00 W/m2
17:34 12.2 °C 1.7 °C 1032.7 hPa Calm     50% 0 mm 0.00 W/m2
17:39 11.7 °C 1.7 °C 1032.7 hPa Calm     51% 0 mm 0.00 W/m2
17:44 11.7 °C 2.2 °C 1032.7 hPa Calm     52% 0 mm 0.00 W/m2
17:49 11.1 °C 1.7 °C 1032.7 hPa Calm     53% 0 mm 0.00 W/m2
17:54 11.1 °C 1.7 °C 1032.7 hPa Calm     53% 0 mm 0.00 W/m2
17:59 10.6 °C 1.7 °C 1032.7 hPa Calm     54% 0 mm 0.00 W/m2
18:04 10.6 °C 1.7 °C 1032.7 hPa Calm     55% 0 mm 0.00 W/m2
18:09 10 °C 1.7 °C 1032.7 hPa Calm     56% 0 mm 0.00 W/m2
18:14 9.4 °C 1.7 °C 1032.7 hPa Calm     57% 0 mm 0.00 W/m2
18:19 9.4 °C 1.7 °C 1032.7 hPa Calm     59% 0 mm 0.00 W/m2
18:24 8.9 °C 1.7 °C 1032.7 hPa Calm     60% 0 mm 0.00 W/m2
18:29 8.9 °C 1.7 °C 1032.7 hPa Calm     60% 0 mm 0.00 W/m2
18:34 8.3 °C 1.1 °C 1032.7 hPa Calm     61% 0 mm 0.00 W/m2
18:39 8.3 °C 1.1 °C 1032.7 hPa Calm     62% 0 mm 0.00 W/m2
18:44 7.8 °C 1.1 °C 1032.7 hPa Calm     63% 0 mm 0.00 W/m2
18:49 7.8 °C 1.1 °C 1032.7 hPa Calm     64% 0 mm 0.00 W/m2
18:53 7.8 °C 1.1 °C 1032.7 hPa Calm     65% 0 mm 0.00 W/m2
18:59 7.2 °C 1.1 °C 1032.7 hPa Calm     65% 0 mm 0.00 W/m2
19:03 7.2 °C 1.1 °C 1032.7 hPa Calm     66% 0 mm 0.00 W/m2
19:05 7.2 °C 1.1 °C 1032.7 hPa Calm     66% 0 mm 0.00 W/m2
El Dorado Weather
Compliments of Weather Underground - 2 mb